Flight Track Log - Related Links

Times and Time Zones

All times are in EDT time to prevent confusion due to time zone crossing. See the N858PR flight status page for this flight to view local times or setup timezone preferences in your user account.


Time Position Orientation Groundspeed Altitude Reporting Facility
EDT Latitude Longitude Course Direction KTS MPH feet Rate Location/Type
Tue 08:29:27 AM 24.8956 -81.0186 358° North 185 213 3,900  Level Miami Center
Tue 08:30:27 AM 24.9375 -81.0086 12° North 170 196 4,800 800 Climbing Miami Center
Tue 08:31:27 AM 24.9794 -81.0008 10° North 157 181 5,500 650 Climbing Miami Center
Tue 08:32:27 AM 25.0233 -80.9978 North 157 181 6,100 650 Climbing Miami Center
Tue 08:33:27 AM 25.0694 -80.9947 North 157 181 6,800 450 Climbing Miami Center
Tue 08:34:00 AM 25.0490 -81.0507 358° North  Level FlightAware Approximate
Tue 08:34:27 AM 25.1156 -80.9894 North 162 186 7,000  Level Miami Center
Tue 08:35:27 AM 25.1658 -80.9889 North 162 186 7,000  Level Miami Center
Tue 08:36:27 AM 25.2181 -80.9861 North 174 200 7,000  Level Miami Center
Tue 08:37:27 AM 25.2703 -80.9833 North 179 206 7,000  Level Miami Center
Tue 08:38:27 AM 25.3225 -80.9828 North 179 206 7,000  Level Miami Center
Tue 08:39:27 AM 25.3747 -80.9822 North 179 206 7,000  Level Miami Center
Tue 08:40:27 AM 25.4269 -80.9794 North 179 206 7,000  Level Miami Center
Tue 08:41:27 AM 25.4772 -80.9764 North 179 206 7,000  Level Miami Center
Tue 08:42:27 AM 25.5294 -80.9781 358° North 179 206 7,000  Level Miami Center
Tue 08:43:27 AM 25.5817 -80.9800 358° North 179 206 7,000  Level Miami Center
Tue 08:44:27 AM 25.6339 -80.9772 North 179 206 7,000  Level Miami Center
Tue 08:45:27 AM 25.6861 -80.9789 358° North 179 206 7,000  Level Miami Center
Tue 08:46:27 AM 25.7361 -80.9831 356° North 179 206 7,000  Level Miami Center
Tue 08:47:27 AM 25.7861 -80.9847 358° North 179 206 7,000  Level Miami Center
Tue 08:48:27 AM 25.8358 -81.0047 340° North 179 206 7,000  Level Miami Center
Tue 08:49:27 AM 25.8833 -81.0181 346° North 179 206 7,000  Level Miami Center
Tue 08:50:27 AM 25.9331 -81.0336 344° North 179 206 7,000 -50 Level Miami Center
Tue 08:51:27 AM 25.9808 -81.0444 348° North 179 206 6,900 -50 Descending Miami Center
Tue 08:52:27 AM 26.0306 -81.0556 349° North 179 206 6,900  Level Miami Center
Tue 08:53:27 AM 26.0783 -81.0664 348° North 179 206 6,900  Level Miami Center
Tue 08:54:27 AM 26.1303 -81.0753 351° North 179 206 6,900  Level Miami Center
Tue 08:55:27 AM 26.1803 -81.0817 353° North 179 206 6,900  Level Miami Center
Tue 08:56:27 AM 26.2289 -81.0625 19° North 174 200 6,900  Level Miami Center
Tue 08:57:27 AM 26.2811 -81.0550 North 179 206 6,900  Level Miami Center
Tue 08:58:27 AM 26.3297 -81.0428 13° North 179 206 6,900 50 Level Miami Center
Tue 08:59:27 AM 26.3781 -81.0306 13° North 179 206 7,000 50 Climbing Miami Center
Tue 09:00:27 AM 26.4347 -81.0189 10° North 184 212 7,000  Level Miami Center
Tue 09:01:27 AM 26.4828 -81.0158 North 177 204 7,000  Level Miami Center
Tue 09:02:27 AM 26.5350 -81.0200 356° North 182 209 7,000  Level Miami Center
Tue 09:03:27 AM 26.5911 -81.0219 358° North 182 209 7,000  Level Miami Center
Tue 09:04:27 AM 26.6433 -81.0239 358° North 176 203 7,000  Level Miami Center
Tue 09:05:27 AM 26.6911 -81.0303 353° North 182 209 7,000  Level Miami Center
Tue 09:06:27 AM 26.7392 -81.0319 358° North 177 204 7,000  Level Miami Center
Tue 09:07:27 AM 26.7914 -81.0361 356° North 177 204 7,000  Level Miami Center
Tue 09:08:27 AM 26.8478 -81.0264 North 177 204 7,000  Level Miami Center
Tue 09:09:27 AM 26.8983 -81.0119 14° North 177 204 7,000  Level Miami Center
Tue 09:10:27 AM 26.9450 -80.9903 22° Northeast 182 209 7,000  Level Miami Center
Tue 09:11:27 AM 26.9872 -80.9708 22° Northeast 182 209 7,000  Level Miami Center
Tue 09:12:27 AM 27.0422 -80.9517 17° North 182 209 7,000  Level Miami Center
Tue 09:13:27 AM 27.0928 -80.9350 16° North 182 209 7,000  Level Miami Center
Tue 09:14:27 AM 27.1431 -80.9228 12° North 182 209 7,000  Level Miami Center
Tue 09:15:27 AM 27.1872 -80.9125 12° North 182 209 7,000  Level Miami Center
Tue 09:16:27 AM 27.2378 -80.8981 14° North 182 209 7,000  Level Miami Center
Tue 09:17:27 AM 27.2925 -80.8836 13° North 182 209 7,000  Level Miami Center
Tue 09:18:27 AM 27.3428 -80.8711 12° North 182 209 7,000 -250 Level Miami Center
Tue 09:19:27 AM 27.3933 -80.8567 14° North 182 209 6,500 -500 Descending Miami Center
Tue 09:20:27 AM 27.4481 -80.8422 13° North 187 215 6,000 -450 Descending Miami Center
Tue 09:21:27 AM 27.5006 -80.8275 14° North 187 215 5,600 -450 Descending Miami Center
Tue 09:22:27 AM 27.5533 -80.8131 14° North 187 215 5,100 -550 Descending Miami Center
Tue 09:23:27 AM 27.6033 -80.8100 North 187 215 4,500 -500 Descending Miami Center
Tue 09:24:27 AM 27.6558 -80.8047 North 187 215 4,100 -200 Descending Miami Center
Tue 09:25:27 AM 27.7061 -80.7947 10° North 174 200 4,100 -300 Level Miami Center
Tue 09:26:27 AM 27.7564 -80.7847 10° North 174 200 3,500 -361 Descending Miami Center
Tue 09:28:30 AM 27.8500 -80.7667 10° North 166 191 3,000 -159 Descending Orlando TRACON
Tue 09:29:36 AM 27.9000 -80.7500 16° North 159 183 3,000  Level Orlando TRACON
Tue 09:30:25 AM 27.9333 -80.7500 360° North 157 181 3,000 -55 Level Orlando TRACON
Tue 09:31:25 AM 27.9833 -80.7333 16° North 164 189 2,900 -316 Descending Orlando TRACON
Tue 09:32:19 AM 28.0000 -80.6833 69° East 179 206 2,400 -364 Descending Orlando TRACON
Tue 09:33:37 AM 28.0333 -80.6333 53° Northeast 171 197 2,100 -130 Descending Orlando TRACON
Tue 09:34:37 AM 28.0667 -80.5833 53° Northeast 158 182 2,100 -316 Level Orlando TRACON
Tue 09:35:31 AM 28.1000 -80.5667 24° Northeast 156 180 1,500 -842 Descending Orlando TRACON
Tue 09:36:31 AM 28.1000 -80.6167 270° West 127 146 500 -1,000 Descending Orlando TRACON
Tue 09:38:00 AM 28.1000 -80.6333 341° North  Level FlightAware Approximate
Tue 09:45:00 AM 28.1028 -80.6453 341° North  Level Estimated
Tue 09:46:00 AM 28.1028 -80.6453 341° North  Level Estimated
Tue 09:47:00 AM 28.1028 -80.6453 341° North  Level Estimated
Tue 09:48:00 AM 28.1028 -80.6453 341° North  Level Estimated

Login

Don't have an account? Register now (free) for customized features, flight alerts, and more!